Flight Track Log - Related Links

Times and Time Zones

All times are in EDT time to prevent confusion due to time zone crossing. See the FLG3729 flight status page for this flight to view local times or setup timezone preferences in your user account.

Time Position Orientation Groundspeed Altitude Reporting Facility
EDT Latitude Longitude Course Direction KTS MPH feet Rate Location/Type
Fri 05:50:18 AM 42.7694 -73.8061 304° West 166 191 1,200  Level Boston Center
Fri 05:50:36 AM 42.7839 -73.8094 350° North 167 192 1,800 2,051 Climbing Boston Center
Fri 05:51:37 AM 42.8314 -73.8528 326° Northwest 213 245 3,900 2,098 Climbing Boston Center
Fri 05:52:39 AM 42.8911 -73.9053 327° Northwest 234 269 6,100 2,213 Climbing Boston Center
Fri 05:53:00 AM 42.8268 -74.2875 281° West  Level FlightAware Approximate
Fri 05:53:39 AM 42.9550 -73.9633 326° Northwest 262 302 8,400  Level Boston Center
Fri 05:54:00 AM 42.8465 -74.4122 283° West  Level FlightAware Approximate
Fri 05:54:39 AM 43.0186 -74.0275 324° Northwest 282 325 10,600  Level Boston Center
Fri 05:55:00 AM 42.8680 -74.5361 304° West  Level FlightAware Approximate
Fri 05:55:39 AM 43.0358 -74.1389 282° West 282 325 11,700  Level Boston Center
Fri 05:56:39 AM 43.0444 -74.2639 275° West 323 372 13,500 1,700 Climbing Boston Center
Fri 05:57:39 AM 43.0528 -74.3922 275° West 334 384 15,100 1,550 Climbing Boston Center
Fri 05:58:39 AM 43.0628 -74.5203 276° West 340 391 16,600 1,200 Climbing Boston Center
Fri 05:59:39 AM 43.0689 -74.6514 274° West 352 405 17,500 1,050 Climbing Boston Center
Fri 06:00:39 AM 43.0808 -74.7853 277° West 357 411 18,700 1,000 Climbing Boston Center
Fri 06:01:39 AM 43.0864 -74.9106 274° West 363 418 19,500 850 Climbing Boston Center
Fri 06:02:39 AM 43.0939 -75.0447 274° West 363 418 20,400 750 Climbing Boston Center
Fri 06:03:39 AM 43.1053 -75.1844 276° West 369 425 21,000 700 Climbing Boston Center
Fri 06:04:39 AM 43.1119 -75.3328 274° West 374 430 21,800 750 Climbing Boston Center
Fri 06:05:39 AM 43.1228 -75.4783 276° West 379 436 22,500 700 Climbing Boston Center
Fri 06:06:39 AM 43.1308 -75.6381 274° West 385 443 23,200 700 Climbing Boston Center
Fri 06:07:39 AM 43.1389 -75.7894 274° West 390 449 23,900 682 Climbing Boston Center
Fri 06:09:35 AM 43.1539 -76.0747 274° West 370 426 25,200 614 Climbing Cleveland Center
Fri 06:10:35 AM 43.1597 -76.2253 273° West 387 445 25,700 500 Climbing Cleveland Center
Fri 06:11:35 AM 43.1464 -76.3742 263° West 392 451 26,200 500 Climbing Cleveland Center
Fri 06:12:35 AM 43.1350 -76.5231 264° West 392 451 26,700 500 Climbing Cleveland Center
Fri 06:13:35 AM 43.1214 -76.6719 263° West 392 451 27,200 500 Climbing Cleveland Center
Fri 06:14:35 AM 43.1075 -76.8178 263° West 392 451 27,700 400 Climbing Cleveland Center
Fri 06:15:35 AM 43.0936 -76.9694 263° West 392 451 28,000 150 Climbing Cleveland Center
Fri 06:16:35 AM 43.0794 -77.1181 263° West 392 451 28,000  Level Cleveland Center
Fri 06:17:35 AM 43.0650 -77.2667 262° West 392 451 28,000  Level Cleveland Center
Fri 06:18:35 AM 43.0525 -77.4153 263° West 392 451 28,000  Level Cleveland Center
Fri 06:19:35 AM 43.0378 -77.5694 263° West 398 458 28,000  Level Cleveland Center
Fri 06:20:35 AM 43.0250 -77.7178 263° West 398 458 28,000  Level Cleveland Center
Fri 06:21:35 AM 43.0097 -77.8689 262° West 403 464 28,000  Level Cleveland Center
Fri 06:22:35 AM 42.9925 -78.0172 261° West 403 464 28,000  Level Cleveland Center
Fri 06:23:35 AM 42.9808 -78.1567 264° West 410 472 28,000  Level Cleveland Center
Fri 06:24:35 AM 42.9650 -78.3078 262° West 410 472 28,000  Level Cleveland Center
Fri 06:25:35 AM 42.9492 -78.4558 262° West 410 472 28,000  Level Cleveland Center
Fri 06:26:35 AM 42.9353 -78.6067 263° West 410 472 28,000  Level Cleveland Center
Fri 06:27:35 AM 42.9147 -78.7575 260° West 410 472 28,000  Level Cleveland Center
Fri 06:28:35 AM 42.8942 -78.9056 259° West 410 472 28,000  Level Cleveland Center
Fri 06:29:35 AM 42.8731 -79.0533 259° West 410 472 28,000  Level Cleveland Center
Fri 06:30:35 AM 42.8500 -79.2069 258° West 410 472 28,000  Level Cleveland Center
Fri 06:31:35 AM 42.8289 -79.3575 259° West 410 472 28,000  Level Cleveland Center
Fri 06:32:35 AM 42.8053 -79.5050 258° West 410 472 28,000  Level Cleveland Center
Fri 06:33:35 AM 42.7836 -79.6581 259° West 410 472 28,000  Level Cleveland Center
Fri 06:34:35 AM 42.7619 -79.8056 259° West 410 472 28,000  Level Cleveland Center
Fri 06:35:35 AM 42.7503 -79.9642 264° West 410 472 28,000  Level Cleveland Center
Fri 06:36:35 AM 42.7386 -80.1394 265° West 424 488 28,000  Level Cleveland Center
Fri 06:37:35 AM 42.7328 -80.2950 267° West 424 488 28,000  Level Cleveland Center
Fri 06:38:35 AM 42.7247 -80.4503 266° West 429 494 28,000  Level Cleveland Center
Fri 06:39:35 AM 42.7186 -80.6114 267° West 422 486 28,000  Level Cleveland Center
Fri 06:40:35 AM 42.7122 -80.7669 267° West 422 486 28,000  Level Cleveland Center
Fri 06:41:35 AM 42.7036 -80.9250 266° West 422 486 28,000  Level Cleveland Center
Fri 06:42:35 AM 42.6842 -81.0747 260° West 422 486 28,000  Level Cleveland Center
Fri 06:43:35 AM 42.6647 -81.2325 261° West 422 486 28,000 -650 Level Cleveland Center
Fri 06:44:35 AM 42.6469 -81.3878 261° West 422 486 26,700 -1,400 Descending Cleveland Center
Fri 06:45:35 AM 42.6292 -81.5397 261° West 422 486 25,200 -1,350 Descending Cleveland Center
Fri 06:46:35 AM 42.6133 -81.6722 261° West 412 474 24,000 -1,700 Descending Cleveland Center
Fri 06:47:35 AM 42.5931 -81.8297 260° West 392 451 21,800 -2,100 Descending Cleveland Center
Fri 06:48:35 AM 42.5769 -81.9761 262° West 392 451 19,800 -2,000 Descending Cleveland Center
Fri 06:49:35 AM 42.5606 -82.1167 261° West 392 451 17,800 -1,850 Descending Cleveland Center
Fri 06:50:35 AM 42.5417 -82.2569 260° West 392 451 16,100 -1,875 Descending Cleveland Center
Fri 06:51:11 AM 42.5342 -82.3442 263° West 364 419 14,800 -1,900 Descending Cleveland Center
Fri 06:51:35 AM 42.5253 -82.3919 256° West 387 445 14,200 -1,786 Descending Cleveland Center
Fri 06:52:35 AM 42.5086 -82.5211 260° West 367 422 12,300 -1,100 Descending Cleveland Center
Fri 06:53:35 AM 42.4731 -82.6439 249° West 353 406 12,000 -150 Descending Cleveland Center
Fri 06:54:35 AM 42.4292 -82.7633 244° Southwest 353 406 12,000  Level Cleveland Center
Fri 06:55:35 AM 42.3850 -82.8828 243° Southwest 358 412 12,000  Level Cleveland Center
Fri 06:56:35 AM 42.3408 -83.0075 244° Southwest 363 418 12,000 -51 Level Cleveland Center
Fri 06:57:33 AM 42.3075 -83.1072 246° West 276 318 11,900 -303 Descending Cleveland Center
Fri 06:58:34 AM 42.2619 -83.1783 229° Southwest 276 318 11,400 -1,096 Descending Cleveland Center
Fri 06:59:28 AM 42.1986 -83.2150 203° Southwest 282 325 9,800 -1,878 Descending Cleveland Center
Fri 07:00:29 AM 42.1250 -83.2511 200° South 268 308 7,800 -2,016 Descending Cleveland Center
Fri 07:01:30 AM 42.0694 -83.3050 216° Southwest 242 278 5,700 -1,922 Descending Cleveland Center
Fri 07:02:37 AM 42.0508 -83.3822 252° West 192 221 3,700 -1,359 Descending Cleveland Center
Fri 07:03:38 AM 42.0897 -83.4092 333° Northwest 161 185 2,800 -885 Descending Cleveland Center

Login

Don't have an account? Register now (free) for customized features, flight alerts, and more!